sensor_id;sensor_type;location;lat;lon;timestamp;temperature;humidity
10662;DHT22;5379;51.034;7.006;2023-09-12T04:30:13;25.20;99.90
10662;DHT22;5379;51.034;7.006;2023-09-12T04:32:39;25.20;99.90
10662;DHT22;5379;51.034;7.006;2023-09-12T04:35:07;25.20;99.90
10662;DHT22;5379;51.034;7.006;2023-09-12T04:37:34;25.00;99.90
10662;DHT22;5379;51.034;7.006;2023-09-12T04:40:00;24.90;99.90
10662;DHT22;5379;51.034;7.006;2023-09-12T04:42:30;24.90;99.90
10662;DHT22;5379;51.034;7.006;2023-09-12T04:44:57;24.90;99.90
10662;DHT22;5379;51.034;7.006;2023-09-12T04:47:25;24.90;99.90
10662;DHT22;5379;51.034;7.006;2023-09-12T04:49:53;24.80;99.90
10662;DHT22;5379;51.034;7.006;2023-09-12T04:52:19;24.80;99.90
10662;DHT22;5379;51.034;7.006;2023-09-12T04:54:46;24.40;99.90
10662;DHT22;5379;51.034;7.006;2023-09-12T04:57:13;24.10;99.90
10662;DHT22;5379;51.034;7.006;2023-09-12T04:59:40;24.10;99.90
10662;DHT22;5379;51.034;7.006;2023-09-12T05:02:06;24.60;99.90
10662;DHT22;5379;51.034;7.006;2023-09-12T05:04:35;24.70;99.90
10662;DHT22;5379;51.034;7.006;2023-09-12T05:07:01;24.80;99.90
10662;DHT22;5379;51.034;7.006;2023-09-12T05:09:28;25.10;99.90
10662;DHT22;5379;51.034;7.006;2023-09-12T05:11:55;25.50;99.90
10662;DHT22;5379;51.034;7.006;2023-09-12T05:14:22;25.40;99.90
10662;DHT22;5379;51.034;7.006;2023-09-12T05:16:48;25.50;99.90
10662;DHT22;5379;51.034;7.006;2023-09-12T05:19:15;25.80;99.90
10662;DHT22;5379;51.034;7.006;2023-09-12T05:21:43;26.20;99.90
10662;DHT22;5379;51.034;7.006;2023-09-12T05:24:10;26.70;99.90
10662;DHT22;5379;51.034;7.006;2023-09-12T05:26:37;27.30;99.90
10662;DHT22;5379;51.034;7.006;2023-09-12T05:29:04;27.10;99.90
10662;DHT22;5379;51.034;7.006;2023-09-12T05:31:31;26.50;99.90
10662;DHT22;5379;51.034;7.006;2023-09-12T05:33:58;26.30;99.90
10662;DHT22;5379;51.034;7.006;2023-09-12T05:36:25;26.00;99.90
10662;DHT22;5379;51.034;7.006;2023-09-12T05:38:53;26.30;99.90
10662;DHT22;5379;51.034;7.006;2023-09-12T05:41:19;27.20;99.90
10662;DHT22;5379;51.034;7.006;2023-09-12T05:43:46;27.60;99.90
10662;DHT22;5379;51.034;7.006;2023-09-12T05:46:13;27.60;99.90
10662;DHT22;5379;51.034;7.006;2023-09-12T05:48:40;27.30;99.90
10662;DHT22;5379;51.034;7.006;2023-09-12T05:51:06;27.50;99.90
10662;DHT22;5379;51.034;7.006;2023-09-12T05:53:33;27.00;99.90
10662;DHT22;5379;51.034;7.006;2023-09-12T05:56:01;27.30;99.90
10662;DHT22;5379;51.034;7.006;2023-09-12T05:58:28;27.90;99.90
10662;DHT22;5379;51.034;7.006;2023-09-12T06:00:55;28.30;99.90
10662;DHT22;5379;51.034;7.006;2023-09-12T06:03:22;28.40;99.90
10662;DHT22;5379;51.034;7.006;2023-09-12T06:05:49;27.90;99.90
10662;DHT22;5379;51.034;7.006;2023-09-12T06:08:16;27.30;99.90
10662;DHT22;5379;51.034;7.006;2023-09-12T06:10:43;27.00;99.90
10662;DHT22;5379;51.034;7.006;2023-09-12T06:13:11;26.80;99.90
10662;DHT22;5379;51.034;7.006;2023-09-12T06:15:38;26.80;99.90
10662;DHT22;5379;51.034;7.006;2023-09-12T06:18:06;26.00;99.90
10662;DHT22;5379;51.034;7.006;2023-09-12T06:20:33;25.90;99.90
10662;DHT22;5379;51.034;7.006;2023-09-12T06:23:00;25.70;99.90
10662;DHT22;5379;51.034;7.006;2023-09-12T06:25:26;26.40;99.90
10662;DHT22;5379;51.034;7.006;2023-09-12T06:27:54;26.20;99.90
10662;DHT22;5379;51.034;7.006;2023-09-12T06:30:22;26.70;99.90
10662;DHT22;5379;51.034;7.006;2023-09-12T06:32:49;27.20;99.90
10662;DHT22;5379;51.034;7.006;2023-09-12T06:35:16;27.10;99.90
10662;DHT22;5379;51.034;7.006;2023-09-12T06:37:43;26.60;99.90
10662;DHT22;5379;51.034;7.006;2023-09-12T06:40:12;26.80;99.90
10662;DHT22;5379;51.034;7.006;2023-09-12T06:42:39;27.00;99.90
10662;DHT22;5379;51.034;7.006;2023-09-12T06:45:07;27.20;99.90
10662;DHT22;5379;51.034;7.006;2023-09-12T06:47:35;27.20;99.90
10662;DHT22;5379;51.034;7.006;2023-09-12T06:50:02;27.00;99.90
10662;DHT22;5379;51.034;7.006;2023-09-12T06:52:29;26.80;99.90
10662;DHT22;5379;51.034;7.006;2023-09-12T06:54:55;26.70;99.90
10662;DHT22;5379;51.034;7.006;2023-09-12T06:57:22;26.30;99.90
10662;DHT22;5379;51.034;7.006;2023-09-12T06:59:49;25.90;99.90
10662;DHT22;5379;51.034;7.006;2023-09-12T07:02:15;25.60;99.90
10662;DHT22;5379;51.034;7.006;2023-09-12T07:04:45;25.50;99.90
10662;DHT22;5379;51.034;7.006;2023-09-12T07:07:11;25.00;99.90
10662;DHT22;5379;51.034;7.006;2023-09-12T07:09:38;24.90;99.90
10662;DHT22;5379;51.034;7.006;2023-09-12T07:12:05;24.70;99.90
10662;DHT22;5379;51.034;7.006;2023-09-12T07:14:32;25.00;99.90
10662;DHT22;5379;51.034;7.006;2023-09-12T07:16:59;24.80;99.90
10662;DHT22;5379;51.034;7.006;2023-09-12T07:19:26;24.90;99.90
10662;DHT22;5379;51.034;7.006;2023-09-12T07:21:55;24.70;99.90
10662;DHT22;5379;51.034;7.006;2023-09-12T07:24:25;25.00;99.90
10662;DHT22;5379;51.034;7.006;2023-09-12T07:26:51;24.80;99.90
10662;DHT22;5379;51.034;7.006;2023-09-12T07:29:19;24.60;99.90
10662;DHT22;5379;51.034;7.006;2023-09-12T07:31:45;24.80;99.90
10662;DHT22;5379;51.034;7.006;2023-09-12T07:34:12;25.00;99.90
10662;DHT22;5379;51.034;7.006;2023-09-12T07:36:40;25.20;99.90
10662;DHT22;5379;51.034;7.006;2023-09-12T07:39:08;25.50;99.90
10662;DHT22;5379;51.034;7.006;2023-09-12T07:41:36;25.50;99.90
10662;DHT22;5379;51.034;7.006;2023-09-12T07:44:03;25.90;99.90
10662;DHT22;5379;51.034;7.006;2023-09-12T07:46:30;25.70;99.90
10662;DHT22;5379;51.034;7.006;2023-09-12T07:48:57;25.50;99.90
10662;DHT22;5379;51.034;7.006;2023-09-12T07:51:25;26.00;99.90
10662;DHT22;5379;51.034;7.006;2023-09-12T07:53:51;26.00;99.90
10662;DHT22;5379;51.034;7.006;2023-09-12T07:56:19;26.20;99.90
10662;DHT22;5379;51.034;7.006;2023-09-12T07:58:46;26.80;99.90
10662;DHT22;5379;51.034;7.006;2023-09-12T08:01:15;26.80;99.90
10662;DHT22;5379;51.034;7.006;2023-09-12T08:03:42;26.70;99.90
10662;DHT22;5379;51.034;7.006;2023-09-12T08:06:09;26.50;99.90
10662;DHT22;5379;51.034;7.006;2023-09-12T08:08:36;26.90;99.90
10662;DHT22;5379;51.034;7.006;2023-09-12T08:11:03;27.60;99.90
10662;DHT22;5379;51.034;7.006;2023-09-12T08:13:31;27.60;99.90
10662;DHT22;5379;51.034;7.006;2023-09-12T08:15:58;26.00;99.90
10662;DHT22;5379;51.034;7.006;2023-09-12T08:18:28;26.50;99.90
10662;DHT22;5379;51.034;7.006;2023-09-12T08:20:55;26.40;99.90
10662;DHT22;5379;51.034;7.006;2023-09-12T08:23:22;26.40;99.90
10662;DHT22;5379;51.034;7.006;2023-09-12T08:25:49;26.50;99.90
10662;DHT22;5379;51.034;7.006;2023-09-12T08:28:15;27.00;99.90
10662;DHT22;5379;51.034;7.006;2023-09-12T08:30:44;26.70;99.90
10662;DHT22;5379;51.034;7.006;2023-09-12T08:33:12;26.70;99.90
10662;DHT22;5379;51.034;7.006;2023-09-12T08:35:43;27.30;99.90
10662;DHT22;5379;51.034;7.006;2023-09-12T08:38:10;27.80;99.90
10662;DHT22;5379;51.034;7.006;2023-09-12T08:40:37;27.80;99.90
10662;DHT22;5379;51.034;7.006;2023-09-12T08:43:04;28.30;99.90
10662;DHT22;5379;51.034;7.006;2023-09-12T08:45:32;28.20;99.90
10662;DHT22;5379;51.034;7.006;2023-09-12T08:48:00;27.60;99.90
10662;DHT22;5379;51.034;7.006;2023-09-12T08:50:28;27.30;99.90
10662;DHT22;5379;51.034;7.006;2023-09-12T08:52:59;24.90;99.90
10662;DHT22;5379;51.034;7.006;2023-09-12T08:55:26;27.40;99.90
10662;DHT22;5379;51.034;7.006;2023-09-12T08:57:55;27.00;99.90
10662;DHT22;5379;51.034;7.006;2023-09-12T09:00:22;26.50;99.90
10662;DHT22;5379;51.034;7.006;2023-09-12T09:02:50;27.20;99.90
10662;DHT22;5379;51.034;7.006;2023-09-12T09:05:20;27.90;99.90
10662;DHT22;5379;51.034;7.006;2023-09-12T09:07:49;28.20;99.90
10662;DHT22;5379;51.034;7.006;2023-09-12T09:10:17;28.30;99.90
10662;DHT22;5379;51.034;7.006;2023-09-12T09:12:46;28.00;99.90
10662;DHT22;5379;51.034;7.006;2023-09-12T09:15:31;27.60;99.90
10662;DHT22;5379;51.034;7.006;2023-09-12T09:17:58;27.00;99.90
10662;DHT22;5379;51.034;7.006;2023-09-12T09:20:31;27.70;99.90
10662;DHT22;5379;51.034;7.006;2023-09-12T09:23:02;28.20;99.90
10662;DHT22;5379;51.034;7.006;2023-09-12T09:25:33;28.40;99.90
10662;DHT22;5379;51.034;7.006;2023-09-12T09:28:03;28.50;99.90
10662;DHT22;5379;51.034;7.006;2023-09-12T09:30:40;28.60;99.90
10662;DHT22;5379;51.034;7.006;2023-09-12T09:33:08;28.60;99.90
10662;DHT22;5379;51.034;7.006;2023-09-12T09:35:36;28.20;99.90
10662;DHT22;5379;51.034;7.006;2023-09-12T09:38:05;27.90;99.90
10662;DHT22;5379;51.034;7.006;2023-09-12T09:40:33;27.20;99.90
10662;DHT22;5379;51.034;7.006;2023-09-12T09:43:03;27.30;99.90
10662;DHT22;5379;51.034;7.006;2023-09-12T09:45:30;27.60;99.90
10662;DHT22;5379;51.034;7.006;2023-09-12T09:47:58;27.50;99.90
10662;DHT22;5379;51.034;7.006;2023-09-12T09:50:25;27.80;99.90
10662;DHT22;5379;51.034;7.006;2023-09-12T09:52:55;28.00;99.90
10662;DHT22;5379;51.034;7.006;2023-09-12T09:55:23;27.70;99.90
10662;DHT22;5379;51.034;7.006;2023-09-12T09:57:50;27.50;99.90
10662;DHT22;5379;51.034;7.006;2023-09-12T10:00:20;27.20;99.90
10662;DHT22;5379;51.034;7.006;2023-09-12T10:02:49;27.00;99.90
10662;DHT22;5379;51.034;7.006;2023-09-12T10:05:17;27.40;99.90
10662;DHT22;5379;51.034;7.006;2023-09-12T10:07:47;27.30;99.90
10662;DHT22;5379;51.034;7.006;2023-09-12T10:10:16;27.50;99.90
10662;DHT22;5379;51.034;7.006;2023-09-12T10:12:48;27.20;99.90
10662;DHT22;5379;51.034;7.006;2023-09-12T10:15:18;27.50;99.90
10662;DHT22;5379;51.034;7.006;2023-09-12T10:17:47;27.70;99.90
10662;DHT22;5379;51.034;7.006;2023-09-12T10:20:21;27.60;99.90
10662;DHT22;5379;51.034;7.006;2023-09-12T10:22:56;27.90;99.90
10662;DHT22;5379;51.034;7.006;2023-09-12T10:25:28;27.70;99.90
10662;DHT22;5379;51.034;7.006;2023-09-12T10:27:56;27.40;99.90
10662;DHT22;5379;51.034;7.006;2023-09-12T10:30:23;27.30;99.90
10662;DHT22;5379;51.034;7.006;2023-09-12T10:32:52;27.40;99.90
10662;DHT22;5379;51.034;7.006;2023-09-12T10:35:19;27.50;99.90
10662;DHT22;5379;51.034;7.006;2023-09-12T10:37:51;27.10;99.90
10662;DHT22;5379;51.034;7.006;2023-09-12T10:40:21;26.70;99.90
10662;DHT22;5379;51.034;7.006;2023-09-12T10:42:51;26.50;99.90
10662;DHT22;5379;51.034;7.006;2023-09-12T10:45:20;26.50;99.90
10662;DHT22;5379;51.034;7.006;2023-09-12T10:47:47;26.60;99.90
10662;DHT22;5379;51.034;7.006;2023-09-12T10:50:14;26.60;99.90
10662;DHT22;5379;51.034;7.006;2023-09-12T10:52:46;25.50;99.90
10662;DHT22;5379;51.034;7.006;2023-09-12T10:55:16;25.50;99.90
10662;DHT22;5379;51.034;7.006;2023-09-12T11:04:30;25.70;99.90
10662;DHT22;5379;51.034;7.006;2023-09-12T11:07:43;25.50;99.90
10662;DHT22;5379;51.034;7.006;2023-09-12T11:10:25;26.60;99.90
10662;DHT22;5379;51.034;7.006;2023-09-12T11:12:55;26.70;99.90
10662;DHT22;5379;51.034;7.006;2023-09-12T11:15:26;26.50;99.90
10662;DHT22;5379;51.034;7.006;2023-09-12T11:18:00;26.60;99.90
10662;DHT22;5379;51.034;7.006;2023-09-12T11:20:49;26.70;99.90
10662;DHT22;5379;51.034;7.006;2023-09-12T11:23:16;27.40;99.90
10662;DHT22;5379;51.034;7.006;2023-09-12T11:25:46;27.20;99.90
10662;DHT22;5379;51.034;7.006;2023-09-12T11:28:13;27.30;99.90
10662;DHT22;5379;51.034;7.006;2023-09-12T11:30:55;26.80;99.90
10662;DHT22;5379;51.034;7.006;2023-09-12T11:33:24;26.20;99.90
10662;DHT22;5379;51.034;7.006;2023-09-12T11:35:56;25.50;99.90
10662;DHT22;5379;51.034;7.006;2023-09-12T11:41:40;26.00;99.90
10662;DHT22;5379;51.034;7.006;2023-09-12T11:46:35;26.20;99.90
10662;DHT22;5379;51.034;7.006;2023-09-12T11:49:03;26.50;99.90
10662;DHT22;5379;51.034;7.006;2023-09-12T11:51:31;26.00;99.90
10662;DHT22;5379;51.034;7.006;2023-09-12T11:53:57;25.70;99.90
10662;DHT22;5379;51.034;7.006;2023-09-12T11:56:26;26.00;99.90
10662;DHT22;5379;51.034;7.006;2023-09-12T11:58:56;26.30;99.90
10662;DHT22;5379;51.034;7.006;2023-09-12T12:01:23;25.80;99.90
10662;DHT22;5379;51.034;7.006;2023-09-12T12:03:50;26.20;99.90
10662;DHT22;5379;51.034;7.006;2023-09-12T12:08:47;26.30;99.90
10662;DHT22;5379;51.034;7.006;2023-09-12T12:11:14;25.90;99.90
10662;DHT22;5379;51.034;7.006;2023-09-12T12:13:41;25.80;99.90
10662;DHT22;5379;51.034;7.006;2023-09-12T12:16:14;25.90;99.90
10662;DHT22;5379;51.034;7.006;2023-09-12T12:18:42;25.90;99.90
10662;DHT22;5379;51.034;7.006;2023-09-12T12:21:08;25.80;99.90
10662;DHT22;5379;51.034;7.006;2023-09-12T12:23:35;25.80;99.90
10662;DHT22;5379;51.034;7.006;2023-09-12T12:26:07;26.20;99.90
10662;DHT22;5379;51.034;7.006;2023-09-12T12:28:35;26.20;99.90
10662;DHT22;5379;51.034;7.006;2023-09-12T12:31:01;26.40;99.90
10662;DHT22;5379;51.034;7.006;2023-09-12T12:33:28;27.10;99.90
10662;DHT22;5379;51.034;7.006;2023-09-12T12:35:59;27.10;99.90
10662;DHT22;5379;51.034;7.006;2023-09-12T12:40:53;26.70;99.90
10662;DHT22;5379;51.034;7.006;2023-09-12T12:43:22;26.40;99.90
10662;DHT22;5379;51.034;7.006;2023-09-12T12:45:53;26.40;99.90
10662;DHT22;5379;51.034;7.006;2023-09-12T12:48:29;27.00;99.90
10662;DHT22;5379;51.034;7.006;2023-09-12T12:51:14;26.90;99.90
10662;DHT22;5379;51.034;7.006;2023-09-12T12:53:43;26.70;99.90
10662;DHT22;5379;51.034;7.006;2023-09-12T12:56:12;27.00;99.90
10662;DHT22;5379;51.034;7.006;2023-09-12T12:58:49;27.20;99.90
10662;DHT22;5379;51.034;7.006;2023-09-12T13:01:21;27.30;99.90
10662;DHT22;5379;51.034;7.006;2023-09-12T13:03:48;27.40;99.90
10662;DHT22;5379;51.034;7.006;2023-09-12T13:06:17;27.20;99.90
10662;DHT22;5379;51.034;7.006;2023-09-12T13:08:45;27.30;99.90
10662;DHT22;5379;51.034;7.006;2023-09-12T13:11:14;27.00;99.90
10662;DHT22;5379;51.034;7.006;2023-09-12T13:13:42;26.90;99.90
10662;DHT22;5379;51.034;7.006;2023-09-12T13:16:10;26.80;99.90
10662;DHT22;5379;51.034;7.006;2023-09-12T13:18:38;26.60;99.90
10662;DHT22;5379;51.034;7.006;2023-09-12T13:21:05;26.10;99.90
10662;DHT22;5379;51.034;7.006;2023-09-12T13:23:36;26.50;99.90
10662;DHT22;5379;51.034;7.006;2023-09-12T13:26:03;26.40;99.90
10662;DHT22;5379;51.034;7.006;2023-09-12T13:28:31;25.90;99.90
10662;DHT22;5379;51.034;7.006;2023-09-12T13:30:58;25.70;99.90
10662;DHT22;5379;51.034;7.006;2023-09-12T13:33:24;25.90;99.90
10662;DHT22;5379;51.034;7.006;2023-09-12T13:35:51;26.20;99.90
10662;DHT22;5379;51.034;7.006;2023-09-12T13:38:18;25.90;99.90
10662;DHT22;5379;51.034;7.006;2023-09-12T13:40:47;25.70;99.90
10662;DHT22;5379;51.034;7.006;2023-09-12T13:43:14;25.40;99.90
10662;DHT22;5379;51.034;7.006;2023-09-12T13:45:41;25.10;99.90
10662;DHT22;5379;51.034;7.006;2023-09-12T13:48:08;25.10;99.90
10662;DHT22;5379;51.034;7.006;2023-09-12T13:50:35;25.70;99.90
10662;DHT22;5379;51.034;7.006;2023-09-12T13:53:02;26.30;99.90
10662;DHT22;5379;51.034;7.006;2023-09-12T13:55:32;26.70;99.90
10662;DHT22;5379;51.034;7.006;2023-09-12T13:58:01;27.20;99.90
10662;DHT22;5379;51.034;7.006;2023-09-12T14:00:28;27.80;99.90
10662;DHT22;5379;51.034;7.006;2023-09-12T14:02:55;28.00;99.90
10662;DHT22;5379;51.034;7.006;2023-09-12T14:05:22;27.70;99.90
10662;DHT22;5379;51.034;7.006;2023-09-12T14:07:48;26.70;99.90
10662;DHT22;5379;51.034;7.006;2023-09-12T14:10:16;26.10;99.90
10662;DHT22;5379;51.034;7.006;2023-09-12T14:12:43;26.10;99.90
10662;DHT22;5379;51.034;7.006;2023-09-12T14:15:13;26.40;99.90
10662;DHT22;5379;51.034;7.006;2023-09-12T14:17:40;26.80;99.90
10662;DHT22;5379;51.034;7.006;2023-09-12T14:20:08;27.50;99.90
10662;DHT22;5379;51.034;7.006;2023-09-12T14:22:35;27.80;99.90
10662;DHT22;5379;51.034;7.006;2023-09-12T14:25:02;27.50;99.90
10662;DHT22;5379;51.034;7.006;2023-09-12T14:27:29;27.50;99.90
10662;DHT22;5379;51.034;7.006;2023-09-12T14:29:56;27.30;99.90
10662;DHT22;5379;51.034;7.006;2023-09-12T14:32:26;27.70;99.90
10662;DHT22;5379;51.034;7.006;2023-09-12T14:34:53;27.40;99.90
10662;DHT22;5379;51.034;7.006;2023-09-12T14:37:19;27.00;99.90
10662;DHT22;5379;51.034;7.006;2023-09-12T14:39:48;26.30;99.90
10662;DHT22;5379;51.034;7.006;2023-09-12T14:42:14;26.40;99.90
10662;DHT22;5379;51.034;7.006;2023-09-12T14:44:41;26.10;99.90
10662;DHT22;5379;51.034;7.006;2023-09-12T14:47:08;25.90;99.90
10662;DHT22;5379;51.034;7.006;2023-09-12T14:49:36;26.30;99.90
10662;DHT22;5379;51.034;7.006;2023-09-12T14:52:04;26.90;99.90
10662;DHT22;5379;51.034;7.006;2023-09-12T14:54:31;27.10;99.90
10662;DHT22;5379;51.034;7.006;2023-09-12T14:56:58;26.70;99.90
10662;DHT22;5379;51.034;7.006;2023-09-12T14:59:24;26.90;99.90
10662;DHT22;5379;51.034;7.006;2023-09-12T15:01:51;26.70;99.90
10662;DHT22;5379;51.034;7.006;2023-09-12T15:04:18;26.60;99.90
10662;DHT22;5379;51.034;7.006;2023-09-12T15:06:46;26.80;99.90
10662;DHT22;5379;51.034;7.006;2023-09-12T15:09:13;26.70;99.90
10662;DHT22;5379;51.034;7.006;2023-09-12T15:11:40;26.40;99.90
10662;DHT22;5379;51.034;7.006;2023-09-12T15:14:07;26.20;99.90
10662;DHT22;5379;51.034;7.006;2023-09-12T15:16:33;26.10;99.90
10662;DHT22;5379;51.034;7.006;2023-09-12T15:19:01;26.30;99.90
10662;DHT22;5379;51.034;7.006;2023-09-12T15:21:28;26.30;99.90
10662;DHT22;5379;51.034;7.006;2023-09-12T15:23:56;26.30;99.90
10662;DHT22;5379;51.034;7.006;2023-09-12T15:26:23;26.20;99.90
10662;DHT22;5379;51.034;7.006;2023-09-12T15:28:50;26.50;99.90
10662;DHT22;5379;51.034;7.006;2023-09-12T15:31:16;26.90;99.90
10662;DHT22;5379;51.034;7.006;2023-09-12T15:33:44;27.50;99.90
10662;DHT22;5379;51.034;7.006;2023-09-12T15:36:11;26.80;99.90
10662;DHT22;5379;51.034;7.006;2023-09-12T15:38:38;27.00;99.90
10662;DHT22;5379;51.034;7.006;2023-09-12T15:41:06;27.10;99.90
10662;DHT22;5379;51.034;7.006;2023-09-12T15:43:33;26.80;99.90
10662;DHT22;5379;51.034;7.006;2023-09-12T15:46:01;27.20;99.90
10662;DHT22;5379;51.034;7.006;2023-09-12T15:48:28;27.10;99.90
10662;DHT22;5379;51.034;7.006;2023-09-12T15:50:55;27.20;99.90
10662;DHT22;5379;51.034;7.006;2023-09-12T15:53:22;27.30;99.90
10662;DHT22;5379;51.034;7.006;2023-09-12T15:55:49;27.30;99.90
10662;DHT22;5379;51.034;7.006;2023-09-12T15:58:19;26.80;99.90
10662;DHT22;5379;51.034;7.006;2023-09-12T16:00:45;26.90;99.90
10662;DHT22;5379;51.034;7.006;2023-09-12T16:03:12;27.20;99.90
10662;DHT22;5379;51.034;7.006;2023-09-12T16:05:39;27.90;99.90
10662;DHT22;5379;51.034;7.006;2023-09-12T16:08:07;27.80;99.90
10662;DHT22;5379;51.034;7.006;2023-09-12T16:10:34;28.00;99.90
10662;DHT22;5379;51.034;7.006;2023-09-12T16:13:00;28.10;99.90
10662;DHT22;5379;51.034;7.006;2023-09-12T16:15:28;27.80;99.90
10662;DHT22;5379;51.034;7.006;2023-09-12T16:17:54;28.00;99.90
10662;DHT22;5379;51.034;7.006;2023-09-12T16:20:21;28.30;99.90
10662;DHT22;5379;51.034;7.006;2023-09-12T16:22:48;28.20;99.90
10662;DHT22;5379;51.034;7.006;2023-09-12T16:25:15;28.00;99.90
10662;DHT22;5379;51.034;7.006;2023-09-12T16:27:41;27.70;99.90
10662;DHT22;5379;51.034;7.006;2023-09-12T16:30:09;27.50;99.90
10662;DHT22;5379;51.034;7.006;2023-09-12T16:32:38;27.70;99.90
10662;DHT22;5379;51.034;7.006;2023-09-12T16:35:05;27.60;99.90
10662;DHT22;5379;51.034;7.006;2023-09-12T16:37:33;27.90;99.90
10662;DHT22;5379;51.034;7.006;2023-09-12T16:40:00;27.90;99.90
10662;DHT22;5379;51.034;7.006;2023-09-12T16:42:29;28.30;99.90
10662;DHT22;5379;51.034;7.006;2023-09-12T16:44:57;28.40;99.90
10662;DHT22;5379;51.034;7.006;2023-09-12T16:47:25;28.20;99.90
10662;DHT22;5379;51.034;7.006;2023-09-12T16:49:55;28.20;99.90
10662;DHT22;5379;51.034;7.006;2023-09-12T16:52:23;28.20;99.90
10662;DHT22;5379;51.034;7.006;2023-09-12T16:54:55;28.50;99.90
10662;DHT22;5379;51.034;7.006;2023-09-12T16:57:30;28.70;99.90
10662;DHT22;5379;51.034;7.006;2023-09-12T16:59:57;28.50;99.90
10662;DHT22;5379;51.034;7.006;2023-09-12T17:02:24;28.30;99.90
10662;DHT22;5379;51.034;7.006;2023-09-12T17:04:51;28.10;99.90
10662;DHT22;5379;51.034;7.006;2023-09-12T17:07:20;28.40;99.90
10662;DHT22;5379;51.034;7.006;2023-09-12T17:09:46;28.40;99.90
10662;DHT22;5379;51.034;7.006;2023-09-12T17:12:13;28.40;99.90
10662;DHT22;5379;51.034;7.006;2023-09-12T17:14:40;28.50;99.90
10662;DHT22;5379;51.034;7.006;2023-09-12T17:17:07;28.70;99.90
10662;DHT22;5379;51.034;7.006;2023-09-12T17:19:34;28.40;99.90
10662;DHT22;5379;51.034;7.006;2023-09-12T17:22:01;27.90;99.90
10662;DHT22;5379;51.034;7.006;2023-09-12T17:24:30;27.60;99.90
10662;DHT22;5379;51.034;7.006;2023-09-12T17:26:57;27.90;99.90
10662;DHT22;5379;51.034;7.006;2023-09-12T17:29:24;28.30;99.90
10662;DHT22;5379;51.034;7.006;2023-09-12T17:31:50;28.50;99.90
10662;DHT22;5379;51.034;7.006;2023-09-12T17:34:17;28.40;99.90
10662;DHT22;5379;51.034;7.006;2023-09-12T17:36:44;28.40;99.90
10662;DHT22;5379;51.034;7.006;2023-09-12T17:39:11;28.20;99.90
10662;DHT22;5379;51.034;7.006;2023-09-12T17:41:40;28.00;99.90
10662;DHT22;5379;51.034;7.006;2023-09-12T17:44:07;27.90;99.90
10662;DHT22;5379;51.034;7.006;2023-09-12T17:46:33;28.20;99.90
10662;DHT22;5379;51.034;7.006;2023-09-12T17:49:00;27.90;99.90
10662;DHT22;5379;51.034;7.006;2023-09-12T17:51:27;29.20;99.90
10662;DHT22;5379;51.034;7.006;2023-09-12T17:53:58;26.70;99.90
10662;DHT22;5379;51.034;7.006;2023-09-12T17:58:53;28.20;99.90
10662;DHT22;5379;51.034;7.006;2023-09-12T18:01:20;28.30;99.90
10662;DHT22;5379;51.034;7.006;2023-09-12T18:03:47;27.00;99.90
10662;DHT22;5379;51.034;7.006;2023-09-12T18:06:14;28.30;99.90
10662;DHT22;5379;51.034;7.006;2023-09-12T18:08:41;28.40;99.90
10662;DHT22;5379;51.034;7.006;2023-09-12T18:11:07;28.40;99.90
10662;DHT22;5379;51.034;7.006;2023-09-12T18:13:34;28.20;99.90
10662;DHT22;5379;51.034;7.006;2023-09-12T18:16:02;28.30;99.90
10662;DHT22;5379;51.034;7.006;2023-09-12T18:18:29;28.50;99.90
10662;DHT22;5379;51.034;7.006;2023-09-12T18:20:56;28.70;99.90
10662;DHT22;5379;51.034;7.006;2023-09-12T18:23:23;28.40;99.90
10662;DHT22;5379;51.034;7.006;2023-09-12T18:25:50;28.40;99.90
10662;DHT22;5379;51.034;7.006;2023-09-12T18:28:35;28.20;99.90
10662;DHT22;5379;51.034;7.006;2023-09-12T18:31:05;28.10;99.90
10662;DHT22;5379;51.034;7.006;2023-09-12T18:33:32;28.50;99.90
10662;DHT22;5379;51.034;7.006;2023-09-12T18:35:59;28.50;99.90
10662;DHT22;5379;51.034;7.006;2023-09-12T18:38:26;28.40;99.90
10662;DHT22;5379;51.034;7.006;2023-09-12T18:40:53;28.80;99.90
10662;DHT22;5379;51.034;7.006;2023-09-12T18:43:20;28.40;99.90
10662;DHT22;5379;51.034;7.006;2023-09-12T18:45:48;28.50;99.90
10662;DHT22;5379;51.034;7.006;2023-09-12T18:48:16;28.40;99.90
10662;DHT22;5379;51.034;7.006;2023-09-12T18:50:43;28.60;99.90
10662;DHT22;5379;51.034;7.006;2023-09-12T18:53:13;28.80;99.90
10662;DHT22;5379;51.034;7.006;2023-09-12T18:55:40;28.90;99.90
10662;DHT22;5379;51.034;7.006;2023-09-12T18:58:08;29.00;99.90
10662;DHT22;5379;51.034;7.006;2023-09-12T19:00:36;28.80;99.90
10662;DHT22;5379;51.034;7.006;2023-09-12T19:03:03;28.80;99.90
10662;DHT22;5379;51.034;7.006;2023-09-12T19:05:31;29.00;99.90
10662;DHT22;5379;51.034;7.006;2023-09-12T19:07:59;29.10;99.90
10662;DHT22;5379;51.034;7.006;2023-09-12T19:10:26;28.70;99.90
10662;DHT22;5379;51.034;7.006;2023-09-12T19:12:53;28.70;99.90
10662;DHT22;5379;51.034;7.006;2023-09-12T19:15:20;28.70;99.90
10662;DHT22;5379;51.034;7.006;2023-09-12T19:20:15;28.20;99.90
10662;DHT22;5379;51.034;7.006;2023-09-12T19:22:43;27.50;99.90
10662;DHT22;5379;51.034;7.006;2023-09-12T19:25:11;27.10;99.90
10662;DHT22;5379;51.034;7.006;2023-09-12T19:27:39;27.00;99.90
10662;DHT22;5379;51.034;7.006;2023-09-12T19:30:07;26.70;99.90
10662;DHT22;5379;51.034;7.006;2023-09-12T19:32:36;26.70;99.90
10662;DHT22;5379;51.034;7.006;2023-09-12T19:35:04;26.40;99.90
10662;DHT22;5379;51.034;7.006;2023-09-12T19:37:30;26.80;99.90
10662;DHT22;5379;51.034;7.006;2023-09-12T19:39:59;26.80;99.90
10662;DHT22;5379;51.034;7.006;2023-09-12T19:42:26;26.50;99.90
10662;DHT22;5379;51.034;7.006;2023-09-12T19:44:52;26.20;99.90
10662;DHT22;5379;51.034;7.006;2023-09-12T19:47:20;25.90;99.90
10662;DHT22;5379;51.034;7.006;2023-09-12T19:49:47;25.70;99.90
10662;DHT22;5379;51.034;7.006;2023-09-12T19:52:16;25.80;99.90
10662;DHT22;5379;51.034;7.006;2023-09-12T19:54:45;25.60;99.90
10662;DHT22;5379;51.034;7.006;2023-09-12T19:57:13;25.50;99.90
10662;DHT22;5379;51.034;7.006;2023-09-12T19:59:40;25.40;99.90
10662;DHT22;5379;51.034;7.006;2023-09-12T20:02:06;25.40;99.90
10662;DHT22;5379;51.034;7.006;2023-09-12T20:04:33;25.30;99.90
10662;DHT22;5379;51.034;7.006;2023-09-12T20:07:00;25.30;99.90
10662;DHT22;5379;51.034;7.006;2023-09-12T20:09:27;25.20;99.90
10662;DHT22;5379;51.034;7.006;2023-09-12T20:11:54;25.10;99.90
10662;DHT22;5379;51.034;7.006;2023-09-12T20:14:24;24.90;99.90
10662;DHT22;5379;51.034;7.006;2023-09-12T20:19:18;25.10;99.90
10662;DHT22;5379;51.034;7.006;2023-09-12T20:21:45;26.00;99.90
10662;DHT22;5379;51.034;7.006;2023-09-12T20:24:12;26.60;99.90
10662;DHT22;5379;51.034;7.006;2023-09-12T20:26:39;27.10;99.90
10662;DHT22;5379;51.034;7.006;2023-09-12T20:29:05;27.40;99.90
10662;DHT22;5379;51.034;7.006;2023-09-12T20:31:33;27.70;99.90
10662;DHT22;5379;51.034;7.006;2023-09-12T20:34:00;27.90;99.90
10662;DHT22;5379;51.034;7.006;2023-09-12T20:36:28;27.40;99.90
10662;DHT22;5379;51.034;7.006;2023-09-12T20:39:23;27.00;99.90
10662;DHT22;5379;51.034;7.006;2023-09-12T20:41:50;26.90;99.90
10662;DHT22;5379;51.034;7.006;2023-09-12T20:44:17;26.50;99.90